Time;durP1;ratioP1;P1;durP2;ratioP2;P2;SDS_P1;SDS_P2;PMS_P1;PMS_P2;Temp;Humidity;BMP_temperature;BMP_pressure;BME280_temperature;BME280_humidity;BME280_pressure;Samples;Min_cycle;Max_cycle;Signal;HPM_P1;HPM_P2
2022/12/12 00:00:09;;;;;;;77.13;21.25;;;;;;;;;;6244229;28;20140;-68
2022/12/12 00:03:29;;;;;;;76.82;21.20;;;;;;;;;;6244568;28;20044;-69
2022/12/12 00:06:31;;;;;;;69.90;20.38;;;;;;;;;;6251588;28;20472;-70
2022/12/12 00:09:32;;;;;;;69.60;20.35;;;;;;;;;;6249197;28;20096;-69
2022/12/12 00:12:33;;;;;;;70.03;20.48;;;;;;;;;;6247009;28;20049;-69
2022/12/12 00:15:33;;;;;;;64.13;20.55;;;;;;;;;;6244737;28;20053;-68
2022/12/12 00:18:35;;;;;;;73.30;20.65;;;;;;;;;;6258558;28;20530;-68
2022/12/12 00:21:36;;;;;;;67.13;19.58;;;;;;;;;;6248243;28;20041;-69
2022/12/12 00:24:37;;;;;;;64.03;18.75;;;;;;;;;;6248299;28;20046;-68
2022/12/12 00:27:37;;;;;;;65.35;20.00;;;;;;;;;;6245599;28;20173;-68
2022/12/12 00:30:38;;;;;;;64.20;19.73;;;;;;;;;;6248407;28;20123;-68
2022/12/12 00:33:38;;;;;;;70.78;19.90;;;;;;;;;;6246965;28;20548;-69
2022/12/12 00:36:40;;;;;;;69.38;19.52;;;;;;;;;;6245672;28;20045;-68
2022/12/12 00:39:40;;;;;;;71.22;19.88;;;;;;;;;;6254261;28;20055;-68
2022/12/12 00:42:41;;;;;;;58.60;18.38;;;;;;;;;;6252136;28;20041;-69
2022/12/12 00:45:42;;;;;;;74.50;23.58;;;;;;;;;;6261739;28;20431;-68
2022/12/12 00:48:43;;;;;;;72.88;21.25;;;;;;;;;;6250585;28;20551;-68
2022/12/12 00:51:44;;;;;;;77.20;22.50;;;;;;;;;;6254304;28;20045;-69
2022/12/12 00:54:44;;;;;;;76.32;21.33;;;;;;;;;;6264945;28;20502;-68
2022/12/12 00:57:45;;;;;;;85.43;22.20;;;;;;;;;;6263414;28;20037;-69
2022/12/12 01:00:45;;;;;;;84.25;23.33;;;;;;;;;;6265685;28;20053;-69
2022/12/12 01:03:46;;;;;;;74.63;20.38;;;;;;;;;;6265282;28;20144;-69
2022/12/12 01:06:47;;;;;;;74.05;21.45;;;;;;;;;;6262826;28;20361;-69
2022/12/12 01:09:47;;;;;;;70.53;21.20;;;;;;;;;;6265539;28;20047;-69
2022/12/12 01:12:48;;;;;;;82.68;22.30;;;;;;;;;;6258469;28;20041;-68
2022/12/12 01:15:49;;;;;;;81.75;22.58;;;;;;;;;;6260276;28;20052;-69
2022/12/12 01:18:50;;;;;;;78.07;22.50;;;;;;;;;;6265494;28;20166;-71
2022/12/12 01:21:50;;;;;;;74.72;22.25;;;;;;;;;;6266080;28;20083;-68
2022/12/12 01:24:51;;;;;;;76.97;20.55;;;;;;;;;;6269672;28;20042;-70
2022/12/12 01:27:52;;;;;;;72.25;21.08;;;;;;;;;;6270176;28;20053;-67
2022/12/12 01:30:52;;;;;;;65.10;19.38;;;;;;;;;;6252804;28;20099;-70
2022/12/12 01:33:53;;;;;;;66.15;20.15;;;;;;;;;;6270414;28;20044;-70
2022/12/12 01:36:54;;;;;;;78.93;21.00;;;;;;;;;;6269118;28;20114;-68
2022/12/12 01:39:54;;;;;;;67.55;19.75;;;;;;;;;;6270394;28;20052;-69
2022/12/12 01:42:55;;;;;;;68.90;20.77;;;;;;;;;;6269816;28;20072;-68
2022/12/12 01:45:59;;;;;;;63.10;18.50;;;;;;;;;;6269332;28;20044;-68
2022/12/12 01:49:05;;;;;;;67.85;19.23;;;;;;;;;;6269753;28;20093;-68
2022/12/12 01:52:11;;;;;;;72.78;19.92;;;;;;;;;;6270149;28;20500;-68
2022/12/12 01:55:16;;;;;;;64.57;18.80;;;;;;;;;;6269157;28;20656;-73
2022/12/12 01:58:16;;;;;;;64.68;18.52;;;;;;;;;;6268789;28;20044;-69
2022/12/12 02:01:18;;;;;;;58.10;18.20;;;;;;;;;;6270066;28;20045;-71
2022/12/12 02:04:20;;;;;;;62.10;17.15;;;;;;;;;;6269173;28;20459;-69
2022/12/12 02:07:21;;;;;;;59.20;17.63;;;;;;;;;;6268712;28;20053;-69
2022/12/12 02:10:22;;;;;;;54.65;16.45;;;;;;;;;;6269595;28;20075;-69
2022/12/12 02:13:26;;;;;;;55.22;16.17;;;;;;;;;;6269990;28;20453;-69
2022/12/12 02:16:38;;;;;;;50.13;15.93;;;;;;;;;;6268211;28;20044;-70
2022/12/12 02:19:57;;;;;;;;;;;;;;;;;;6269538;28;20116;-68
2022/12/12 02:23:25;;;;;;;53.63;14.77;;;;;;;;;;6269069;28;19921;-69
2022/12/12 02:26:41;;;;;;;53.22;14.98;;;;;;;;;;6269164;28;20505;-68
2022/12/12 02:30:05;;;;;;;55.13;14.48;;;;;;;;;;6267754;28;20090;-68
2022/12/12 02:33:25;;;;;;;52.92;14.65;;;;;;;;;;6267617;28;20206;-69
2022/12/12 02:36:42;;;;;;;46.65;14.18;;;;;;;;;;6269109;28;20045;-68
2022/12/12 02:39:53;;;;;;;56.25;16.20;;;;;;;;;;6268983;28;20061;-71
2022/12/12 02:43:09;;;;;;;53.00;15.73;;;;;;;;;;6268785;28;20045;-69
2022/12/12 02:46:28;;;;;;;55.83;15.57;;;;;;;;;;6267578;28;20549;-68
2022/12/12 02:49:37;;;;;;;54.50;16.05;;;;;;;;;;6268468;28;20059;-69
2022/12/12 02:52:40;;;;;;;60.10;17.30;;;;;;;;;;6268461;28;20477;-69
2022/12/12 02:55:41;;;;;;;62.17;17.30;;;;;;;;;;6267769;28;20071;-69
2022/12/12 02:58:41;;;;;;;50.70;15.80;;;;;;;;;;6267825;28;20572;-68
2022/12/12 03:01:53;;;;;;;55.28;16.35;;;;;;;;;;6268197;28;20074;-68
2022/12/12 03:08:46;;;;;;;58.97;17.15;;;;;;;;;;6266953;28;20452;-68
2022/12/12 03:12:10;;;;;;;51.13;15.23;;;;;;;;;;6267262;28;20041;-68
2022/12/12 03:15:26;;;;;;;52.13;15.95;;;;;;;;;;6268271;28;20049;-68
2022/12/12 03:18:35;;;;;;;49.83;15.15;;;;;;;;;;6267236;28;20041;-69
2022/12/12 03:21:47;;;;;;;55.83;15.75;;;;;;;;;;6258474;28;20136;-69
2022/12/12 03:24:56;;;;;;;52.85;15.90;;;;;;;;;;6264689;28;20040;-68
2022/12/12 03:28:12;;;;;;;55.90;16.23;;;;;;;;;;6267834;28;20045;-67
2022/12/12 03:31:18;;;;;;;58.38;17.73;;;;;;;;;;6267831;28;20493;-70
2022/12/12 03:34:24;;;;;;;55.72;15.98;;;;;;;;;;6266086;28;20072;-70
2022/12/12 03:37:30;;;;;;;58.83;16.25;;;;;;;;;;6267309;28;20045;-69
2022/12/12 03:40:51;;;;;;;59.90;16.25;;;;;;;;;;6267248;28;20103;-70
2022/12/12 03:44:12;;;;;;;55.60;16.30;;;;;;;;;;6267202;28;20049;-69
2022/12/12 03:47:18;;;;;;;59.50;17.33;;;;;;;;;;6266116;28;20087;-70
2022/12/12 03:50:21;;;;;;;54.60;16.63;;;;;;;;;;6266752;28;20053;-70
2022/12/12 03:53:48;;;;;;;55.95;17.35;;;;;;;;;;6267502;28;20128;-70
2022/12/12 03:57:06;;;;;;;58.30;17.83;;;;;;;;;;6267117;28;20041;-66
2022/12/12 04:00:12;;;;;;;50.75;16.38;;;;;;;;;;6260899;28;20059;-70
2022/12/12 04:03:30;;;;;;;64.93;17.88;;;;;;;;;;6267135;28;20548;-70
2022/12/12 04:06:44;;;;;;;55.85;17.63;;;;;;;;;;6267747;28;20053;-71
2022/12/12 04:13:32;;;;;;;61.75;17.77;;;;;;;;;;6265099;28;20531;-71
2022/12/12 04:16:39;;;;;;;64.38;18.20;;;;;;;;;;6254997;28;20053;-70
2022/12/12 04:23:26;;;;;;;59.60;17.67;;;;;;;;;;6257956;28;20057;-71
2022/12/12 04:26:40;;;;;;;59.30;17.05;;;;;;;;;;6249243;28;20416;-71
2022/12/12 04:29:51;;;;;;;65.22;19.52;;;;;;;;;;6247068;28;20046;-70
2022/12/12 04:33:08;;;;;;;64.18;16.98;;;;;;;;;;6247629;28;20056;-70
2022/12/12 04:36:12;;;;;;;63.95;18.48;;;;;;;;;;6249182;28;20052;-70
2022/12/12 04:39:14;;;;;;;58.25;16.75;;;;;;;;;;6247649;28;20060;-70
2022/12/12 04:42:20;;;;;;;59.55;18.98;;;;;;;;;;6246334;28;20053;-70
2022/12/12 04:45:23;;;;;;;65.18;18.58;;;;;;;;;;6247780;28;20049;-70
2022/12/12 04:48:32;;;;;;;59.03;17.23;;;;;;;;;;6254174;28;20087;-69
2022/12/12 04:51:40;;;;;;;67.72;19.35;;;;;;;;;;6243795;28;20625;-69
2022/12/12 04:55:04;;;;;;;60.72;17.25;;;;;;;;;;6259878;28;20077;-68
2022/12/12 04:58:06;;;;;;;66.00;18.70;;;;;;;;;;6252412;28;20037;-69
2022/12/12 05:01:14;;;;;;;65.80;18.77;;;;;;;;;;6255249;28;20136;-69
2022/12/12 05:04:24;;;;;;;66.47;18.17;;;;;;;;;;6248932;28;20421;-69
2022/12/12 05:07:36;;;;;;;57.50;18.23;;;;;;;;;;6248677;28;20055;-70
2022/12/12 05:10:44;;;;;;;68.13;18.05;;;;;;;;;;6262044;28;20539;-70
2022/12/12 05:13:45;;;;;;;66.75;16.65;;;;;;;;;;6248257;28;20515;-70
2022/12/12 05:16:50;;;;;;;66.65;17.90;;;;;;;;;;6249220;28;20098;-70
2022/12/12 05:19:51;;;;;;;59.33;18.05;;;;;;;;;;6265483;28;20059;-70
2022/12/12 05:22:52;;;;;;;67.13;17.95;;;;;;;;;;6252533;28;20045;-70
2022/12/12 05:25:53;;;;;;;66.78;18.75;;;;;;;;;;6263344;28;20174;-69
2022/12/12 05:28:54;;;;;;;66.88;18.85;;;;;;;;;;6247692;28;20045;-70
2022/12/12 05:31:55;;;;;;;69.18;20.05;;;;;;;;;;6247164;28;20091;-70
2022/12/12 05:34:55;;;;;;;65.65;19.08;;;;;;;;;;6247415;28;20080;-70
2022/12/12 05:37:56;;;;;;;68.88;19.90;;;;;;;;;;6245064;28;20041;-70
2022/12/12 05:40:56;;;;;;;63.58;17.88;;;;;;;;;;6248144;28;20143;-70
2022/12/12 05:43:57;;;;;;;62.08;19.23;;;;;;;;;;6249022;28;20076;-69
2022/12/12 05:46:57;;;;;;;62.25;18.38;;;;;;;;;;6248365;28;20398;-69
2022/12/12 05:49:58;;;;;;;62.25;18.00;;;;;;;;;;6248485;28;20061;-69
2022/12/12 05:52:59;;;;;;;63.70;18.63;;;;;;;;;;6255024;28;20052;-70
2022/12/12 05:55:59;;;;;;;61.03;17.88;;;;;;;;;;6260247;28;20561;-70
2022/12/12 05:59:00;;;;;;;60.97;19.42;;;;;;;;;;6251904;28;20081;-70
2022/12/12 06:02:01;;;;;;;72.63;18.13;;;;;;;;;;6259264;28;20051;-69
2022/12/12 06:05:01;;;;;;;69.28;20.42;;;;;;;;;;6259933;28;20051;-69
2022/12/12 06:08:02;;;;;;;63.72;18.23;;;;;;;;;;6246721;28;20049;-70
2022/12/12 06:11:06;;;;;;;60.35;17.73;;;;;;;;;;6249531;28;20053;-69
2022/12/12 06:14:07;;;;;;;70.10;19.98;;;;;;;;;;6250071;28;20472;-69
2022/12/12 06:17:07;;;;;;;69.55;18.67;;;;;;;;;;6250514;28;20126;-68
2022/12/12 06:20:08;;;;;;;69.80;19.42;;;;;;;;;;6249987;28;20077;-69
2022/12/12 06:23:09;;;;;;;66.43;19.17;;;;;;;;;;6250728;28;20068;-68
2022/12/12 06:26:13;;;;;;;60.35;18.88;;;;;;;;;;6256076;28;20178;-71
2022/12/12 06:29:13;;;;;;;61.13;19.48;;;;;;;;;;6266768;28;20044;-69
2022/12/12 06:32:14;;;;;;;67.38;18.30;;;;;;;;;;6251403;28;20050;-70
2022/12/12 06:35:15;;;;;;;67.95;19.95;;;;;;;;;;6266376;28;20094;-69
2022/12/12 06:38:15;;;;;;;65.20;21.55;;;;;;;;;;6251854;28;20136;-69
2022/12/12 06:41:16;;;;;;;77.63;21.30;;;;;;;;;;6261114;28;20132;-70
2022/12/12 06:44:17;;;;;;;65.83;18.40;;;;;;;;;;6249284;28;20053;-68
2022/12/12 06:47:18;;;;;;;70.78;21.27;;;;;;;;;;6248470;28;20091;-69
2022/12/12 06:50:18;;;;;;;67.28;20.13;;;;;;;;;;6247572;28;20092;-69
2022/12/12 06:53:19;;;;;;;80.35;20.42;;;;;;;;;;6254281;28;20415;-69
2022/12/12 06:56:22;;;;;;;79.40;22.35;;;;;;;;;;6257632;28;20106;-69
2022/12/12 06:59:23;;;;;;;77.72;22.52;;;;;;;;;;6263246;28;20467;-69
2022/12/12 07:02:23;;;;;;;76.82;22.77;;;;;;;;;;6249805;28;20463;-69
2022/12/12 07:05:24;;;;;;;76.50;23.30;;;;;;;;;;6250725;28;20413;-69
2022/12/12 07:08:27;;;;;;;70.90;22.02;;;;;;;;;;6250212;28;20128;-69
2022/12/12 07:11:27;;;;;;;78.72;23.08;;;;;;;;;;6248571;28;20149;-69
2022/12/12 07:14:28;;;;;;;78.10;22.23;;;;;;;;;;6246771;28;20040;-69
2022/12/12 07:17:28;;;;;;;79.20;24.13;;;;;;;;;;6257390;28;20048;-68
2022/12/12 07:20:29;;;;;;;78.50;21.92;;;;;;;;;;6260164;28;20069;-69
2022/12/12 07:23:30;;;;;;;78.50;23.23;;;;;;;;;;6247728;28;20044;-69
2022/12/12 07:26:30;;;;;;;81.20;24.50;;;;;;;;;;6248023;28;20071;-69
2022/12/12 07:29:31;;;;;;;85.13;22.55;;;;;;;;;;6249743;28;20053;-68
2022/12/12 07:32:32;;;;;;;76.22;23.55;;;;;;;;;;6248704;28;20041;-70
2022/12/12 07:35:34;;;;;;;78.05;22.88;;;;;;;;;;6253887;28;20507;-69
2022/12/12 07:38:35;;;;;;;75.80;21.70;;;;;;;;;;6251117;28;20049;-69
2022/12/12 07:41:37;;;;;;;74.40;22.85;;;;;;;;;;6254124;28;20072;-68
2022/12/12 07:44:38;;;;;;;66.35;20.08;;;;;;;;;;6275817;28;20464;-73
2022/12/12 07:47:38;;;;;;;56.00;15.45;;;;;;;;;;6267407;28;20090;-70
2022/12/12 07:50:40;;;;;;;87.22;23.00;;;;;;;;;;6261070;28;20519;-70
2022/12/12 07:53:41;;;;;;;87.55;24.55;;;;;;;;;;6248414;28;20361;-70
2022/12/12 07:56:42;;;;;;;78.00;24.17;;;;;;;;;;6249437;28;20072;-71
2022/12/12 07:59:42;;;;;;;69.85;23.60;;;;;;;;;;6255173;28;20561;-70
2022/12/12 08:02:43;;;;;;;81.30;24.30;;;;;;;;;;6263815;28;20481;-70
2022/12/12 08:05:44;;;;;;;70.68;22.30;;;;;;;;;;6265731;28;20107;-69
2022/12/12 08:08:46;;;;;;;78.80;22.48;;;;;;;;;;6266113;28;20093;-69
2022/12/12 08:11:46;;;;;;;80.03;23.15;;;;;;;;;;6265621;28;20053;-70
2022/12/12 08:14:47;;;;;;;81.20;24.63;;;;;;;;;;6265654;28;20036;-71
2022/12/12 08:17:48;;;;;;;85.70;23.83;;;;;;;;;;6265528;28;20432;-71
2022/12/12 08:20:49;;;;;;;89.18;25.00;;;;;;;;;;6266322;28;20040;-70
2022/12/12 08:23:49;;;;;;;79.57;23.42;;;;;;;;;;6265541;28;20090;-70
2022/12/12 08:26:51;;;;;;;86.97;23.58;;;;;;;;;;6266601;28;20041;-71
2022/12/12 08:29:52;;;;;;;76.00;21.65;;;;;;;;;;6266696;28;20174;-71
2022/12/12 08:32:53;;;;;;;75.93;23.23;;;;;;;;;;6263539;28;20065;-71
2022/12/12 08:35:54;;;;;;;84.75;24.00;;;;;;;;;;6253750;28;20480;-70
2022/12/12 08:39:01;;;;;;;72.72;21.13;;;;;;;;;;6250811;28;20041;-70
2022/12/12 08:42:01;;;;;;;75.30;22.33;;;;;;;;;;6264756;28;20187;-71
2022/12/12 08:45:03;;;;;;;70.40;22.05;;;;;;;;;;6263051;28;20123;-71
2022/12/12 08:48:05;;;;;;;74.55;22.83;;;;;;;;;;6265874;28;20064;-71
2022/12/12 08:51:07;;;;;;;71.57;22.10;;;;;;;;;;6266081;28;20079;-70
2022/12/12 08:54:10;;;;;;;74.68;22.02;;;;;;;;;;6263917;28;20540;-71
2022/12/12 08:57:11;;;;;;;79.47;21.88;;;;;;;;;;6264028;28;20559;-71
2022/12/12 09:00:12;;;;;;;73.13;21.75;;;;;;;;;;6254516;28;20049;-71
2022/12/12 09:03:13;;;;;;;76.10;20.52;;;;;;;;;;6246725;28;20110;-72
2022/12/12 09:06:14;;;;;;;69.70;21.65;;;;;;;;;;6247722;28;20045;-70
2022/12/12 09:09:15;;;;;;;73.40;20.92;;;;;;;;;;6246723;28;20044;-70
2022/12/12 09:12:16;;;;;;;65.53;20.02;;;;;;;;;;6246079;28;20065;-71
2022/12/12 09:15:16;;;;;;;68.35;21.60;;;;;;;;;;6251881;28;20044;-71
2022/12/12 09:18:18;;;;;;;64.35;20.40;;;;;;;;;;6262422;28;20044;-70
2022/12/12 09:21:19;;;;;;;;;;;;;;;;;;6265624;28;20136;-71
2022/12/12 09:24:20;;;;;;;62.80;20.58;;;;;;;;;;6263419;28;19943;-71
2022/12/12 09:27:20;;;;;;;71.65;21.58;;;;;;;;;;6262766;28;20152;-71
2022/12/12 09:30:21;;;;;;;70.47;21.40;;;;;;;;;;6242615;28;20114;-70
2022/12/12 09:33:22;;;;;;;74.78;22.38;;;;;;;;;;6241108;28;20048;-71
2022/12/12 09:36:22;;;;;;;72.80;21.77;;;;;;;;;;6240079;28;20045;-70
2022/12/12 09:39:23;;;;;;;72.53;22.83;;;;;;;;;;6251850;28;20060;-70
2022/12/12 09:42:27;;;;;;;68.03;20.73;;;;;;;;;;6249686;28;20098;-70
2022/12/12 09:45:30;;;;;;;69.07;21.48;;;;;;;;;;6255088;28;20063;-69
2022/12/12 09:48:45;;;;;;;75.07;21.95;;;;;;;;;;6247336;28;20085;-69
2022/12/12 09:51:49;;;;;;;72.85;22.50;;;;;;;;;;6243126;28;20052;-70
2022/12/12 09:54:50;;;;;;;68.00;21.02;;;;;;;;;;6255168;28;20466;-69
2022/12/12 09:58:03;;;;;;;75.60;23.65;;;;;;;;;;6269585;28;20041;-69
2022/12/12 10:01:15;;;;;;;68.45;20.75;;;;;;;;;;6268072;28;20045;-69
2022/12/12 10:04:22;;;;;;;74.38;22.58;;;;;;;;;;6268231;28;20491;-70
2022/12/12 10:07:40;;;;;;;76.68;22.75;;;;;;;;;;6267529;28;20074;-70
2022/12/12 10:10:47;;;;;;;81.13;23.80;;;;;;;;;;6253842;28;20612;-70
2022/12/12 10:13:48;;;;;;;78.40;23.35;;;;;;;;;;6250192;28;20041;-70
2022/12/12 10:16:49;;;;;;;76.40;23.70;;;;;;;;;;6249918;28;20098;-70
2022/12/12 10:20:19;;;;;;;84.68;28.05;;;;;;;;;;6252403;28;20072;-71
2022/12/12 10:23:47;;;;;;;77.40;21.25;;;;;;;;;;6246301;28;20049;-71
2022/12/12 10:26:47;;;;;;;75.47;22.63;;;;;;;;;;6251590;28;20060;-71
2022/12/12 10:29:49;;;;;;;74.95;23.08;;;;;;;;;;6246272;28;20060;-71
2022/12/12 10:33:11;;;;;;;88.93;24.65;;;;;;;;;;6246977;28;20481;-71
2022/12/12 10:36:27;;;;;;;106.32;34.90;;;;;;;;;;6250577;28;20131;-71
2022/12/12 10:39:54;;;;;;;81.13;23.58;;;;;;;;;;6250036;28;20049;-71
2022/12/12 10:43:01;;;;;;;74.57;21.77;;;;;;;;;;6249316;28;20047;-71
2022/12/12 10:46:27;;;;;;;80.57;23.08;;;;;;;;;;6248976;28;20056;-71
2022/12/12 10:49:28;;;;;;;78.20;23.67;;;;;;;;;;6265739;28;20482;-71
2022/12/12 10:52:28;;;;;;;77.78;23.05;;;;;;;;;;6257019;28;20045;-71
2022/12/12 10:55:52;;;;;;;74.97;21.13;;;;;;;;;;6248436;28;20049;-71
2022/12/12 10:58:55;;;;;;;81.47;24.80;;;;;;;;;;6247890;28;20489;-71
2022/12/12 11:01:58;;;;;;;91.72;31.80;;;;;;;;;;6248023;28;20132;-71
2022/12/12 11:05:06;;;;;;;97.43;31.55;;;;;;;;;;6251822;28;20053;-71
2022/12/12 11:08:21;;;;;;;86.45;27.08;;;;;;;;;;6251499;28;20497;-71
2022/12/12 11:11:23;;;;;;;73.80;20.88;;;;;;;;;;6248518;28;20067;-70
2022/12/12 11:14:33;;;;;;;72.13;21.65;;;;;;;;;;6251663;28;20182;-70
2022/12/12 11:17:34;;;;;;;70.90;22.17;;;;;;;;;;6247838;28;20052;-70
2022/12/12 11:20:43;;;;;;;70.63;21.23;;;;;;;;;;6246875;28;20624;-71
2022/12/12 11:23:51;;;;;;;72.00;22.05;;;;;;;;;;6253250;28;20068;-71
2022/12/12 11:26:58;;;;;;;77.53;22.50;;;;;;;;;;6265539;28;20133;-71
2022/12/12 11:30:06;;;;;;;82.63;23.45;;;;;;;;;;6265880;28;20053;-71
2022/12/12 11:33:17;;;;;;;77.78;22.55;;;;;;;;;;6267064;28;20041;-70
2022/12/12 11:36:26;;;;;;;76.60;21.90;;;;;;;;;;6267358;28;20136;-71
2022/12/12 11:39:35;;;;;;;82.18;23.60;;;;;;;;;;6265202;28;20143;-71
2022/12/12 11:42:36;;;;;;;69.70;21.02;;;;;;;;;;6266124;28;20418;-71
2022/12/12 11:45:36;;;;;;;73.10;21.27;;;;;;;;;;6265542;28;20049;-71
2022/12/12 11:48:51;;;;;;;67.85;22.60;;;;;;;;;;6266439;28;20083;-71
2022/12/12 11:51:52;;;;;;;77.70;22.95;;;;;;;;;;6265616;28;20076;-71
2022/12/12 11:54:54;;;;;;;68.60;21.33;;;;;;;;;;6253467;28;20049;-71
2022/12/12 11:58:12;;;;;;;71.10;21.80;;;;;;;;;;6248565;28;20048;-71
2022/12/12 12:01:36;;;;;;;68.75;21.58;;;;;;;;;;6247763;28;20738;-71
2022/12/12 12:05:03;;;;;;;62.30;20.30;;;;;;;;;;6250758;28;20506;-70
2022/12/12 12:08:16;;;;;;;58.90;20.25;;;;;;;;;;6258069;28;20049;-70
2022/12/12 12:11:31;;;;;;;69.68;20.05;;;;;;;;;;6248939;28;20052;-70
2022/12/12 12:14:54;;;;;;;71.40;21.98;;;;;;;;;;6246696;28;20041;-71
2022/12/12 12:18:05;;;;;;;60.05;20.88;;;;;;;;;;6245865;28;20411;-71
2022/12/12 12:21:21;;;;;;;67.10;20.92;;;;;;;;;;6247570;28;20099;-70
2022/12/12 12:24:32;;;;;;;69.35;22.83;;;;;;;;;;6244896;28;20471;-71
2022/12/12 12:27:55;;;;;;;67.57;19.88;;;;;;;;;;6244300;28;20738;-70
2022/12/12 12:30:59;;;;;;;63.28;20.98;;;;;;;;;;6258603;28;20078;-71
2022/12/12 12:34:35;;;;;;;69.43;21.35;;;;;;;;;;6265728;28;20041;-71
2022/12/12 12:37:36;;;;;;;63.50;21.02;;;;;;;;;;6253643;28;20048;-70
2022/12/12 12:40:55;;;;;;;67.60;22.13;;;;;;;;;;6265592;28;20037;-70
2022/12/12 12:44:15;;;;;;;66.32;20.15;;;;;;;;;;6262824;28;20152;-71
2022/12/12 12:47:37;;;;;;;71.25;21.58;;;;;;;;;;6265210;28;20055;-71
2022/12/12 12:50:46;;;;;;;73.93;21.45;;;;;;;;;;6265267;28;20049;-70
2022/12/12 12:54:13;;;;;;;73.35;21.95;;;;;;;;;;6265404;28;20488;-71
2022/12/12 12:57:27;;;;;;;75.00;22.23;;;;;;;;;;6266180;28;20049;-71
2022/12/12 13:00:29;;;;;;;74.75;21.90;;;;;;;;;;6243647;28;20099;-71
2022/12/12 13:03:36;;;;;;;65.55;21.95;;;;;;;;;;6246304;28;20049;-70
2022/12/12 13:06:48;;;;;;;76.78;25.05;;;;;;;;;;6243079;28;20049;-70
2022/12/12 13:09:59;;;;;;;78.57;23.07;;;;;;;;;;6241910;28;20063;-70
2022/12/12 13:13:11;;;;;;;78.00;23.65;;;;;;;;;;6246052;28;20118;-70
2022/12/12 13:16:16;;;;;;;75.22;22.15;;;;;;;;;;6245564;28;20167;-70
2022/12/12 13:19:37;;;;;;;75.32;23.58;;;;;;;;;;6246988;28;20057;-70
2022/12/12 13:22:55;;;;;;;80.97;25.27;;;;;;;;;;6250820;28;20820;-67
2022/12/12 13:26:05;;;;;;;86.25;27.27;;;;;;;;;;6251341;28;20041;-68
2022/12/12 13:29:43;;;;;;;82.40;24.25;;;;;;;;;;6250553;28;20064;-69
2022/12/12 13:32:52;;;;;;;85.53;23.60;;;;;;;;;;6251156;28;20079;-70
2022/12/12 13:36:04;;;;;;;81.53;24.55;;;;;;;;;;6249461;28;20495;-70
2022/12/12 13:39:07;;;;;;;85.63;26.43;;;;;;;;;;6250231;28;20134;-71
2022/12/12 13:42:09;;;;;;;86.63;26.05;;;;;;;;;;6248845;28;20048;-70
2022/12/12 13:45:33;;;;;;;77.90;25.13;;;;;;;;;;6245830;28;20487;-70
2022/12/12 13:48:40;;;;;;;76.32;23.38;;;;;;;;;;6248486;28;20139;-70
2022/12/12 13:51:45;;;;;;;76.13;23.75;;;;;;;;;;6249831;28;20114;-70
2022/12/12 13:54:46;;;;;;;75.90;23.60;;;;;;;;;;6245711;28;22884;-70
2022/12/12 13:57:57;;;;;;;89.17;25.10;;;;;;;;;;6246566;28;20053;-70
2022/12/12 14:01:32;;;;;;;85.57;25.92;;;;;;;;;;6247530;28;20045;-67
2022/12/12 14:04:36;;;;;;;84.68;24.50;;;;;;;;;;6247718;28;20059;-68
2022/12/12 14:07:38;;;;;;;81.53;25.23;;;;;;;;;;6252749;28;20426;-67
2022/12/12 14:10:51;;;;;;;89.03;26.48;;;;;;;;;;6246193;28;20684;-67
2022/12/12 14:14:02;;;;;;;83.80;25.50;;;;;;;;;;6247164;28;20049;-68
2022/12/12 14:17:03;;;;;;;80.05;25.05;;;;;;;;;;6247697;28;21025;-67
2022/12/12 14:20:04;;;;;;;84.05;25.25;;;;;;;;;;6249404;28;20057;-66
2022/12/12 14:23:34;;;;;;;84.37;25.70;;;;;;;;;;6247737;28;21485;-69
2022/12/12 14:26:34;;;;;;;90.13;24.77;;;;;;;;;;6248243;28;20053;-69
2022/12/12 14:29:42;;;;;;;79.03;24.13;;;;;;;;;;6249455;28;21467;-68
2022/12/12 14:32:49;;;;;;;89.50;25.67;;;;;;;;;;6247827;28;20118;-68
2022/12/12 14:36:07;;;;;;;80.38;24.13;;;;;;;;;;6246526;28;20476;-68
2022/12/12 14:39:39;;;;;;;98.63;27.70;;;;;;;;;;6248199;28;20106;-70
2022/12/12 14:43:09;;;;;;;96.97;27.55;;;;;;;;;;6249317;28;20057;-67
2022/12/12 14:46:17;;;;;;;87.60;26.23;;;;;;;;;;6236379;28;20705;-67
2022/12/12 14:49:18;;;;;;;82.22;24.92;;;;;;;;;;6246905;28;20057;-70
2022/12/12 14:52:22;;;;;;;94.68;25.33;;;;;;;;;;6250913;28;20045;-69
2022/12/12 14:55:23;;;;;;;85.93;26.45;;;;;;;;;;6246920;28;20068;-69
2022/12/12 14:58:27;;;;;;;80.22;25.08;;;;;;;;;;6248808;28;20329;-69
2022/12/12 15:01:38;;;;;;;85.20;26.08;;;;;;;;;;6252251;28;20475;-69
2022/12/12 15:04:42;;;;;;;83.57;25.05;;;;;;;;;;6253036;28;20056;-69
2022/12/12 15:07:43;;;;;;;85.78;25.50;;;;;;;;;;6254169;28;20427;-69
2022/12/12 15:10:44;;;;;;;85.47;25.45;;;;;;;;;;6247454;28;21045;-69
2022/12/12 15:13:59;;;;;;;85.20;26.50;;;;;;;;;;6251137;28;20049;-69
2022/12/12 15:17:15;;;;;;;87.22;26.50;;;;;;;;;;6255976;28;20078;-69
2022/12/12 15:20:21;;;;;;;86.97;26.25;;;;;;;;;;6255896;28;20045;-69
2022/12/12 15:23:22;;;;;;;94.60;28.13;;;;;;;;;;6253899;28;20045;-69
2022/12/12 15:26:29;;;;;;;90.10;24.83;;;;;;;;;;6251896;28;20102;-69
2022/12/12 15:29:31;;;;;;;87.75;26.85;;;;;;;;;;6250031;28;20707;-69
2022/12/12 15:32:32;;;;;;;85.28;26.25;;;;;;;;;;6247034;28;20534;-70
2022/12/12 15:35:33;;;;;;;91.85;28.35;;;;;;;;;;6247941;28;20043;-69
2022/12/12 15:38:34;;;;;;;91.68;27.17;;;;;;;;;;6249099;28;20045;-69
2022/12/12 15:41:35;;;;;;;90.88;25.90;;;;;;;;;;6245352;28;20860;-69
2022/12/12 15:44:35;;;;;;;96.22;27.60;;;;;;;;;;6246184;28;20045;-69
2022/12/12 15:47:36;;;;;;;94.07;28.25;;;;;;;;;;6249056;28;20506;-69
2022/12/12 15:50:43;;;;;;;102.55;28.30;;;;;;;;;;6251040;28;20099;-69
2022/12/12 15:53:51;;;;;;;93.20;28.17;;;;;;;;;;6247923;28;20421;-70
2022/12/12 15:56:51;;;;;;;99.20;27.95;;;;;;;;;;6250675;28;20826;-69
2022/12/12 15:59:59;;;;;;;93.50;27.75;;;;;;;;;;6248209;28;20057;-69
2022/12/12 16:03:18;;;;;;;95.35;29.38;;;;;;;;;;6247619;28;20056;-69
2022/12/12 16:06:23;;;;;;;90.10;26.95;;;;;;;;;;6249389;28;20067;-68
2022/12/12 16:09:25;;;;;;;108.78;32.33;;;;;;;;;;6252696;28;20063;-69
2022/12/12 16:12:57;;;;;;;106.72;30.48;;;;;;;;;;6250054;28;20740;-68
2022/12/12 16:15:57;;;;;;;102.47;29.38;;;;;;;;;;6245149;28;20068;-68
2022/12/12 16:18:58;;;;;;;93.70;27.75;;;;;;;;;;6247851;28;20579;-68
2022/12/12 16:22:05;;;;;;;100.57;31.10;;;;;;;;;;6249989;28;20048;-68
2022/12/12 16:25:11;;;;;;;108.50;31.13;;;;;;;;;;6243049;28;20053;-68
2022/12/12 16:28:17;;;;;;;103.55;31.85;;;;;;;;;;6248917;28;20072;-68
2022/12/12 16:31:17;;;;;;;103.55;29.83;;;;;;;;;;6247031;28;20080;-69
2022/12/12 16:34:18;;;;;;;101.07;29.52;;;;;;;;;;6245462;28;20053;-68
2022/12/12 16:37:19;;;;;;;108.05;31.60;;;;;;;;;;6248193;28;20498;-68
2022/12/12 16:40:20;;;;;;;103.10;30.30;;;;;;;;;;6247308;28;20060;-68
2022/12/12 16:43:23;;;;;;;95.25;30.05;;;;;;;;;;6246800;28;20550;-69
2022/12/12 16:46:24;;;;;;;90.72;29.83;;;;;;;;;;6245685;28;20069;-68
2022/12/12 16:49:25;;;;;;;104.07;29.48;;;;;;;;;;6248743;28;20163;-68
2022/12/12 16:52:25;;;;;;;86.13;26.13;;;;;;;;;;6247208;28;20111;-68
2022/12/12 16:55:26;;;;;;;86.10;25.58;;;;;;;;;;6242736;28;20045;-69
2022/12/12 16:58:27;;;;;;;77.47;23.55;;;;;;;;;;6247086;28;20095;-70
2022/12/12 17:01:28;;;;;;;87.93;22.85;;;;;;;;;;6246956;28;20483;-69
2022/12/12 17:04:29;;;;;;;70.97;22.75;;;;;;;;;;6243129;28;20049;-69
2022/12/12 17:07:29;;;;;;;76.03;23.85;;;;;;;;;;6245029;28;20510;-63
2022/12/12 17:10:32;;;;;;;71.90;21.75;;;;;;;;;;6253612;28;20047;-69
2022/12/12 17:13:33;;;;;;;78.53;22.98;;;;;;;;;;6252923;28;20064;-69
2022/12/12 17:16:33;;;;;;;77.03;22.33;;;;;;;;;;6254711;28;20148;-68
2022/12/12 17:19:34;;;;;;;71.65;19.98;;;;;;;;;;6255058;28;20131;-69
2022/12/12 17:22:34;;;;;;;61.67;19.20;;;;;;;;;;6257334;28;20049;-69
2022/12/12 17:25:35;;;;;;;68.45;19.75;;;;;;;;;;6253164;28;20135;-69
2022/12/12 17:28:36;;;;;;;59.28;17.98;;;;;;;;;;6257258;28;20042;-68
2022/12/12 17:31:36;;;;;;;72.30;19.23;;;;;;;;;;6256558;28;20044;-68
2022/12/12 17:34:37;;;;;;;70.85;20.30;;;;;;;;;;6254105;28;20059;-67
2022/12/12 17:37:38;;;;;;;57.20;18.48;;;;;;;;;;6255004;28;20045;-65
2022/12/12 17:40:42;;;;;;;56.03;18.25;;;;;;;;;;6254667;28;21160;-68
2022/12/12 17:43:43;;;;;;;72.80;18.92;;;;;;;;;;6253429;28;20049;-68
2022/12/12 17:46:44;;;;;;;61.65;17.88;;;;;;;;;;6253618;28;20045;-67
2022/12/12 17:49:46;;;;;;;59.67;17.95;;;;;;;;;;6256399;28;20458;-70
2022/12/12 17:52:47;;;;;;;48.22;17.35;;;;;;;;;;6256087;28;20164;-69
2022/12/12 17:55:48;;;;;;;57.30;16.92;;;;;;;;;;6252293;28;20427;-68
2022/12/12 17:58:49;;;;;;;54.97;16.83;;;;;;;;;;6256593;28;20689;-69
2022/12/12 18:01:52;;;;;;;53.70;17.02;;;;;;;;;;6253749;28;20886;-69
2022/12/12 18:04:53;;;;;;;52.20;17.75;;;;;;;;;;6255064;28;20798;-68
2022/12/12 18:07:54;;;;;;;59.25;16.60;;;;;;;;;;6254616;28;20043;-69
2022/12/12 18:10:55;;;;;;;53.40;17.55;;;;;;;;;;6259261;28;20458;-70